This is the latest recevied weather packets stored in our database for station/object EA2BK-11. If no packets are shown the sender has not sent any weather packets the latest 10 day(s).
| Time | Temp. | Humidity | Pressure | Rain* | Wind** | Luminosity | Snow |
|---|---|---|---|---|---|---|---|
| 1777642610 | 27.22° C | 40% | 951 hPa | - | - | - | - |
| 1777641704 | 30° C | 34% | 951 hPa | - | - | - | - |
| 1777640799 | 31.11° C | 32% | 951 hPa | - | - | - | - |
| 1777639894 | 26.11° C | 41% | 951 hPa | - | - | - | - |
| 1777638989 | 24.44° C | 45% | 951 hPa | - | - | - | - |
| 1777638084 | 25° C | 44% | 951 hPa | - | - | - | - |
| 1777637178 | 23.89° C | 46% | 951 hPa | - | - | - | - |
| 1777636273 | 23.33° C | 47% | 951 hPa | - | - | - | - |
| 1777635368 | 24.44° C | 45% | 951 hPa | - | - | - | - |
| 1777634463 | 25° C | 45% | 951 hPa | - | - | - | - |
| 1777633558 | 24.44° C | 46% | 951 hPa | - | - | - | - |
| 1777632652 | 23.33° C | 49% | 951 hPa | - | - | - | - |
| 1777631747 | 22.22° C | 52% | 951 hPa | - | - | - | - |
| 1777630842 | 21.11° C | 53% | 952 hPa | - | - | - | - |
| 1777629937 | 21.11° C | 53% | 952 hPa | - | - | - | - |
| 1777629032 | 20° C | 55% | 952 hPa | - | - | - | - |
| 1777628127 | 19.44° C | 57% | 952 hPa | - | - | - | - |
| 1777627221 | 18.89° C | 57% | 952 hPa | - | - | - | - |
| 1777626316 | 18.89° C | 58% | 952 hPa | - | - | - | - |
| 1777625411 | 18.33° C | 60% | 952 hPa | - | - | - | - |
| 1777624506 | 18.33° C | 60% | 952 hPa | - | - | - | - |
| 1777623601 | 17.78° C | 62% | 951 hPa | - | - | - | - |
| 1777622696 | 17.78° C | 63% | 951 hPa | - | - | - | - |
| 1777621790 | 17.78° C | 63% | 951 hPa | - | - | - | - |
| 1777620885 | 17.22° C | 63% | 951 hPa | - | - | - | - |
* Rain since midnight (hover to see other rain measurements)
** Current wind speed in m/s (hover to see current wind gust speed)